Airfield :
LOGIN :

Register | Disclaimer

   EN    FR    IT 

 










Legend :    VFR   Marginal VFR   IFR   Intensive IFR   Very Intensive IFR
Visi :
Ceiling :
>= 8 km
>= 3000ft
5 to 8 km
1000 to 3000 ft
1500m to 5 km
500 to 1000 ft
800 to 1500m
200 to 500 ft
< 800m
< 200 ft
Symbols :   Thunderstorms  Fog  Heavy snow  Heavy precipitations  Wind > 20 kt
SIGMETs :     Misc.  Thunderstorms  Icing  Turbulence  Mountain Waves  Volcanic Ashes






- Airport Elevation : 468 ft
- IATA code : GRO


LEGE - Girona Costa Brava

CURRENT METAR :
  • 061800Z 20007KT 9999 FEW050 25/20 Q1015

EXPIRED METARs :
  • 061730Z 19007KT 160V220 9999 FEW050 27/20 Q1015
  • 061700Z 18006KT 150V230 9999 FEW050 27/21 Q1015
  • 061630Z 19008KT 160V220 9999 FEW050 27/21 Q1015
  • 061600Z 18009KT 150V210 9999 FEW045 27/21 Q1015
  • 061530Z 20010KT 160V240 9999 FEW045 28/21 Q1015
  • 061500Z 20010KT 170V260 9999 FEW045 28/21 Q1015

TAF TAF LEGE
Valid from the 06 at 18:00 until the 07 at 18:00 UTC


061700Z 0618/0718 18010KT 9999 SCT035 TX30/0713Z TN18/0706Z
BECMG 0618/0620 VRB03KT
BECMG 0710/0712 18010KT



MET'MAP, your aeronautical weather chart ! - Copyright ORBIFLY December 2007 - Disclaimer

ORBIFLY MET'MAP TEAM :

Programming & Development : Alexandra Zaïnal
Concept & original design : Baudouin d'Aumeries
Assistance for programming : Marc-Olivier Méhu
Technical & hardware support : Manuel Goepfert

Contact : metmap@orbifly.com




SOURCES & CREDITS :

   NOAA